Reading, VT (05062)

8:58 PM EDT on September 15, 2014 (GMT -0400)
Pikes Peak | Change Station
CLOSE
Current Station
Personal Weather Station
Location: Weathersfield, VT
Elevation: 1200 ft
Nearby Weather Stations

Elev 1200 ft 43.40 °N, 72.48 °W | Updated 3 minutes ago

Partly Cloudy
Partly Cloudy
52.4 °F
Feels Like 52.4 °F
N
0.0
Wind Variable Wind from ESE
Gusts 6.0 mph

Today
High -- | Low -- °F
--% Chance of Precip.
Yesterday
High -- | Low -- °F
Precip. -- in
6:29 AM 7:00 PM
Waning Gibbous, 50% visible
Pressure 30.14 in
Visibility 10.0 miles
Clouds Clear
Dew Point 46 °F
Humidity 78%
Rainfall 0.00 in
Snow Depth Not available.
UV 0 out of 12
Pollen 1.70 out of 12
Ozone Good
PM2.5 Good
Flu Activity Not available.
METAR KVSF 160054Z AUTO 00000KT 10SM CLR 11/08 A3012 RMK AO2 SLP204 T01060083

More Conditions Fewer Conditions

Pressure 30.14 in
Visibility 10.0 miles
Clouds Clear
Dew Point 46 °F
Humidity 78%
Rainfall 0.00 in
Snow Depth Not available.
UV 0 out of 12
Pollen 1.70 out of 12
Ozone Good
PM2.5 Good
Flu Activity Not available.
METAR KVSF 160054Z AUTO 00000KT 10SM CLR 11/08 A3012 RMK AO2 SLP204 T01060083

More Conditions Fewer Conditions

10-Day Weather Forecast

Almanac

Astronomy

Sep. 15, 2014 Rise Set
Actual Time 6:29 AM EDT 7:00 PM EDT
Civil Twilight 6:00 AM EDT 7:29 PM EDT
Nautical Twilight 5:26 AM EDT 8:03 PM EDT
Astronomical Twilight 4:51 AM EDT 8:38 PM EDT
Moon 11:30 PM EDT (9/15) 1:37 PM EDT (9/15)
Length of Visible Light 13h 28m
Length of Day
12h 30m
Tomorrow will be 2m 57s shorter.
Waning Gibbous, 50% of the Moon is Illuminated
Today
Waning Gibbous
Sep 15
Last Quarter
Sep 24
New
Oct 1
First Quarter
Oct 8
Full

Today's Extremes

State Highs State Lows

Community

WunderPhotos

Upload Photos

1,753,630 photos uploaded!

Nearby

Air Quality

  Air Quality AQ Index Pollutant
Yesterday Good
OZONE
Current Good
OZONE
Current Good
PM2.5
Monday Good
PM2.5
Monday Good
OZONE
Tuesday Good
PM2.5
Tuesday Good
OZONE

Snow Depth

Station Depth Elevation
No new snow has been reported.

Earthquake Activity

City Distance Mag. Time & Date
No recent earthquake activity has been reported nearby.
Minimum magnitude displayed is 2.5.

Coastal Water Temperatures

Place Temperature
No Stations Reporting

Nearby Weather Stations